Airfield :
LOGIN :

Register | Disclaimer

   EN    FR    IT 

 










Legend :    VFR   Marginal VFR   IFR   Intensive IFR   Very Intensive IFR
Visi :
Ceiling :
>= 8 km
>= 3000ft
5 to 8 km
1000 to 3000 ft
1500m to 5 km
500 to 1000 ft
800 to 1500m
200 to 500 ft
< 800m
< 200 ft
Symbols :   Thunderstorms  Fog  Heavy snow  Heavy precipitations  Wind > 20 kt
SIGMETs :     Misc.  Thunderstorms  Icing  Turbulence  Mountain Waves  Volcanic Ashes






- Airport Elevation : 12 ft
- IATA code : BCN


LEBL - Barcelone

CURRENT METAR :
  • 241743Z 02006KT 350V050 9999 4000SW TSRA FEW020CB SCT030 BKN050 18/13 Q1010 NOSIG

EXPIRED METARs :
  • 241700Z 07009KT 040V100 9999 FEW020CB SCT055 19/14 Q1009 TEMPO 3000 TSRA
  • 241630Z 07011KT 9999 FEW020CB SCT046 19/15 Q1009 NOSIG
  • 241600Z 06012KT 9999 FEW020CB BKN046 19/15 Q1009 NOSIG
  • 241530Z 06010KT 030V100 9999 FEW020CB BKN046 18/15 Q1010 NOSIG
  • 241500Z 07008KT 030V110 9999 -RA VCSH FEW020CB SCT030 BKN050 18/15 Q1009 RESHRA NOSIG
  • 241444Z 09012KT 070V130 8000 SHRA FEW020CB SCT032 BKN050 18/15 Q1009 TEMPO 3000 TSRA

TAF TAF LEBL
Valid from the 24 at 18:00 until the 25 at 18:00 UTC


241700Z 2418/2518 06010KT 9999 SCT015 TX22/2512Z TN15/2506Z
TEMPO 2418/2424 08015G25KT 3000 TSRA FEW015CB
BECMG 2420/2422 33007KT
TEMPO 2421/2509 4000 SHRA FEW025TCU
BECMG 2508/2510 25006KT



MET'MAP, your aeronautical weather chart ! - Copyright ORBIFLY December 2007 - Disclaimer

ORBIFLY MET'MAP TEAM :

Programming & Development : Alexandra Zaïnal
Original concept : Baudouin d'Aumeries
Technical & hardware support : Manuel Goepfert
Assistance : Marc-Olivier Méhu

Contact : metmap@orbifly.com




SOURCES & CREDITS :

   NOAA